Aérodrome :
LOGIN :

S'inscrire | Disclaimer

   EN    FR    IT 

 










Légende :    VFR   VFR Marginal   IFR   IFR Intensif   IFR Très Intensif
Visi : 
Plafond : 
>= 8 km
>= 3000ft
5 à 8 km
1000 à 3000 ft
1500m à 5 km
500 à 1000 ft
800 à 1500m
200 à 500 ft
< 800m
< 200 ft
Symboles :   Orages  Brouillard  Fortes neiges  Fortes précipitations  Vent > 20 kt
SIGMETs :   Divers  Orages  Givrage  Turbulence  Onde Orograph.  Cendres Volcan.







- Altitude de l'aérodrome : 219 ft
- Code IATA : DNR
- Voir les cartes d'approche


LFRD - Dinard

DERNIER METAR :
  • 240930Z AUTO 07003KT 020V130 9999 OVC007 16/14 Q1027 BECMG SCT020

METARs EXPIRÉS :
  • 240900Z AUTO 07003KT 010V130 9999 OVC007 15/14 Q1027 BECMG BKN013
  • 240830Z AUTO VRB03KT 9999 OVC006 15/14 Q1027 BECMG BKN013
  • 240800Z AUTO VRB03KT 9999 OVC005 14/14 Q1027 TEMPO 3000 BR BECMG BKN013
  • 240730Z AUTO 00000KT 8000 OVC004 14/14 Q1027 TEMPO 3000 BR BECMG BKN013
  • 240700Z AUTO 03003KT 360V060 3200 BR OVC002 14/13 Q1027 BECMG BKN005

TAF TAF LFRD
Valide du 24 à 06h jusqu'au 25 à 06h UTC


240500Z 2406/2506 VRB03KT 0400 FG VV///
BECMG 2407/2409 3000 BR BKN005
BECMG 2409/2411 9999 NSW BKN013
BECMG 2411/2413 36008KT SCT020
BECMG 2420/2423 06005KT
TEMPO 2502/2506 3000 BR
ATIS : +33 2 99 16 81 50
Pas de NOTAMs connus pour ce terrain.



MET'MAP, la Météo Aéronautique d'un coup d'oeil ! - Copyright ORBIFLY Décembre 2007 - Disclaimer

ORBIFLY MET'MAP TEAM :

Programmation & Développement : Alexandra Zaïnal
Conception & Développement : Baudouin d'Aumeries
Co-Programmation & Développement : Marc-Olivier Méhu
Soutien technique & logistique : Manuel Goepfert

Contact : metmap@orbifly.com




SOURCES & CREDITS :

   NOAA